createdAt,value
2019-06-10T00:00:38.061Z,0.00
2019-06-10T00:01:38.158Z,0.00
2019-06-10T00:02:38.117Z,0.00
2019-06-10T00:03:38.153Z,4.00
2019-06-10T00:04:38.174Z,4.00
2019-06-10T00:05:38.197Z,4.00
2019-06-10T00:06:38.229Z,4.00
2019-06-10T00:07:38.254Z,4.00
2019-06-10T00:08:38.280Z,4.00
2019-06-10T00:09:40.593Z,4.00
2019-06-10T00:10:38.336Z,4.00
2019-06-10T00:11:40.957Z,4.00
2019-06-10T00:12:38.391Z,4.00
2019-06-10T00:13:38.417Z,4.00
2019-06-10T00:14:38.447Z,0.00
2019-06-10T00:15:40.750Z,0.00
2019-06-10T00:16:38.498Z,0.00
2019-06-10T00:17:52.670Z,0.00
2019-06-10T00:18:45.110Z,0.00
2019-06-10T00:19:40.748Z,4.00
2019-06-10T00:20:40.757Z,4.00
2019-06-10T00:21:38.650Z,4.00
2019-06-10T00:22:40.787Z,4.00
2019-06-10T00:23:41.061Z,4.00
2019-06-10T00:24:40.750Z,4.00
2019-06-10T00:25:41.346Z,4.00
2019-06-10T00:26:38.774Z,4.00
2019-06-10T00:27:38.852Z,4.00
2019-06-10T00:28:40.653Z,4.00
2019-06-10T00:29:40.861Z,4.00
2019-06-10T00:30:41.133Z,8.00
2019-06-10T00:31:38.913Z,8.00
2019-06-10T00:32:41.062Z,8.00
2019-06-10T00:33:41.252Z,4.00
2019-06-10T00:34:38.993Z,4.00
2019-06-10T00:35:41.288Z,4.00
2019-06-10T00:36:41.241Z,4.00
2019-06-10T00:37:41.736Z,8.00
2019-06-10T00:38:41.180Z,8.00
2019-06-10T00:39:40.895Z,4.00
2019-06-10T00:40:41.438Z,8.00
2019-06-10T00:41:39.186Z,8.00
2019-06-10T00:42:41.620Z,4.00
2019-06-10T00:43:41.175Z,8.00
2019-06-10T00:44:41.501Z,8.00
2019-06-10T00:45:41.004Z,4.00
2019-06-10T00:46:40.833Z,8.00
2019-06-10T00:47:41.306Z,8.00
2019-06-10T00:48:41.013Z,8.00
2019-06-10T00:49:40.934Z,8.00
2019-06-10T00:50:41.541Z,8.00
2019-06-10T00:51:41.448Z,8.00
2019-06-10T00:52:42.196Z,8.00
2019-06-10T00:53:42.119Z,8.00
2019-06-10T00:54:41.777Z,12.00
2019-06-10T00:55:41.554Z,12.00
2019-06-10T00:56:41.350Z,8.00
2019-06-10T00:57:41.708Z,12.00
2019-06-10T00:58:40.813Z,8.00
2019-06-10T00:59:41.357Z,8.00
2019-06-10T01:00:41.190Z,8.00
2019-06-10T01:01:41.594Z,8.00
2019-06-10T01:02:41.070Z,12.00
2019-06-10T01:03:41.514Z,12.00
2019-06-10T01:04:40.776Z,12.00
2019-06-10T01:05:42.114Z,12.00
2019-06-10T01:06:42.162Z,12.00
2019-06-10T01:07:41.407Z,16.00
2019-06-10T01:08:40.547Z,12.00
2019-06-10T01:09:41.312Z,12.00
2019-06-10T01:10:43.264Z,16.00
2019-06-10T01:11:41.143Z,16.00
2019-06-10T01:12:40.709Z,16.00
2019-06-10T01:13:41.388Z,16.00
2019-06-10T01:14:41.175Z,16.00
2019-06-10T01:15:41.782Z,16.00
2019-06-10T01:16:41.139Z,16.00
2019-06-10T01:17:41.709Z,16.00
2019-06-10T01:18:41.634Z,16.00
2019-06-10T01:19:41.547Z,16.00
2019-06-10T01:20:41.219Z,16.00
2019-06-10T01:21:41.535Z,16.00
2019-06-10T01:22:41.059Z,16.00
2019-06-10T01:23:41.601Z,16.00
2019-06-10T01:24:40.751Z,16.00
2019-06-10T01:25:42.210Z,16.00
2019-06-10T01:26:41.197Z,16.00
2019-06-10T01:27:41.034Z,16.00
2019-06-10T01:28:41.028Z,16.00
2019-06-10T01:29:41.623Z,16.00
2019-06-10T01:30:41.184Z,16.00
2019-06-10T01:31:42.008Z,16.00
2019-06-10T01:32:41.668Z,16.00
2019-06-10T01:33:41.164Z,16.00
2019-06-10T01:34:41.685Z,20.00
2019-06-10T01:35:41.433Z,16.00
2019-06-10T01:36:40.695Z,20.00
2019-06-10T01:37:41.391Z,20.00
2019-06-10T01:38:41.026Z,20.00
2019-06-10T01:39:41.251Z,24.00
2019-06-10T01:40:42.092Z,24.00
2019-06-10T01:41:41.032Z,24.00
2019-06-10T01:42:41.356Z,24.00
2019-06-10T01:43:40.891Z,28.00
2019-06-10T01:44:41.315Z,28.00
2019-06-10T01:45:41.794Z,28.00
2019-06-10T01:46:41.132Z,32.00
2019-06-10T01:47:41.629Z,32.00
2019-06-10T01:48:47.161Z,32.00
2019-06-10T01:49:41.287Z,36.00
2019-06-10T01:50:41.102Z,40.00
2019-06-10T01:51:41.303Z,36.00
2019-06-10T01:52:41.278Z,36.00
2019-06-10T01:53:41.490Z,52.00
2019-06-10T01:54:42.044Z,36.00
2019-06-10T01:55:41.910Z,48.00
2019-06-10T01:56:41.238Z,44.00
2019-06-10T01:57:41.423Z,40.00
2019-06-10T01:58:41.293Z,44.00
2019-06-10T01:59:41.429Z,40.00
2019-06-10T02:00:41.848Z,56.00
2019-06-10T02:01:41.450Z,64.00
2019-06-10T02:02:44.527Z,68.00
2019-06-10T02:03:41.631Z,52.00
2019-06-10T02:04:41.476Z,44.00
2019-06-10T02:05:42.065Z,48.00
2019-06-10T02:06:41.510Z,48.00
2019-06-10T02:07:41.544Z,44.00
2019-06-10T02:08:41.872Z,44.00
2019-06-10T02:09:41.590Z,48.00
2019-06-10T02:10:41.693Z,48.00
2019-06-10T02:11:41.681Z,52.00
2019-06-10T02:12:41.697Z,88.00
2019-06-10T02:13:41.702Z,92.00
2019-06-10T02:14:41.748Z,100.00
2019-06-10T02:15:41.817Z,104.00
2019-06-10T02:16:41.782Z,108.00
2019-06-10T02:17:41.857Z,108.00
2019-06-10T02:18:56.522Z,108.00
2019-06-10T02:19:41.864Z,112.00
2019-06-10T02:20:41.893Z,116.00
2019-06-10T02:21:41.918Z,124.00
2019-06-10T02:22:41.948Z,128.00
2019-06-10T02:23:41.973Z,136.00
2019-06-10T02:24:42.001Z,124.00
2019-06-10T02:25:42.030Z,116.00
2019-06-10T02:26:42.056Z,156.00
2019-06-10T02:27:42.082Z,164.00
2019-06-10T02:28:42.110Z,168.00
2019-06-10T02:29:42.137Z,168.00
2019-06-10T02:30:50.932Z,160.00
2019-06-10T02:31:43.270Z,160.00
2019-06-10T02:32:42.749Z,152.00
2019-06-10T02:33:42.251Z,140.00
2019-06-10T02:34:59.837Z,132.00
2019-06-10T02:35:48.443Z,132.00
2019-06-10T02:36:44.617Z,128.00
2019-06-10T02:37:44.519Z,120.00
2019-06-10T02:38:44.466Z,120.00
2019-06-10T02:39:43.953Z,128.00
2019-06-10T02:40:43.466Z,128.00
2019-06-10T02:41:44.527Z,136.00
2019-06-10T02:42:43.619Z,128.00
2019-06-10T02:43:44.089Z,132.00
2019-06-10T02:44:44.573Z,136.00
2019-06-10T02:45:44.589Z,140.00
2019-06-10T02:46:43.956Z,148.00
2019-06-10T02:47:44.396Z,156.00
2019-06-10T02:48:43.581Z,160.00
2019-06-10T02:49:57.150Z,172.00
2019-06-10T02:50:44.098Z,180.00
2019-06-10T02:51:43.613Z,176.00
2019-06-10T02:52:44.475Z,172.00
2019-06-10T02:53:43.674Z,176.00
2019-06-10T02:54:43.874Z,184.00
2019-06-10T02:55:43.421Z,184.00
2019-06-10T02:56:44.207Z,180.00
2019-06-10T02:57:44.710Z,168.00
2019-06-10T02:58:44.943Z,168.00
2019-06-10T02:59:43.521Z,172.00
2019-06-10T03:00:48.239Z,184.00
2019-06-10T03:01:43.960Z,184.00
2019-06-10T03:02:45.166Z,184.00
2019-06-10T03:03:48.577Z,188.00
2019-06-10T03:04:43.424Z,192.00
2019-06-10T03:05:46.624Z,192.00
2019-06-10T03:06:44.872Z,212.00
2019-06-10T03:07:44.326Z,232.00
2019-06-10T03:08:43.847Z,208.00
2019-06-10T03:09:43.230Z,220.00
2019-06-10T03:10:44.332Z,228.00
2019-06-10T03:11:44.826Z,228.00
2019-06-10T03:12:43.311Z,240.00
2019-06-10T03:13:43.340Z,300.00
2019-06-10T03:14:43.367Z,244.00
2019-06-10T03:15:43.394Z,144.00
2019-06-10T03:16:43.423Z,264.00
2019-06-10T03:17:43.450Z,272.00
2019-06-10T03:18:43.615Z,280.00
2019-06-10T03:19:50.084Z,280.00
2019-06-10T03:20:43.537Z,292.00
2019-06-10T03:21:43.559Z,288.00
2019-06-10T03:22:43.585Z,152.00
2019-06-10T03:23:43.661Z,296.00
2019-06-10T03:24:43.641Z,296.00
2019-06-10T03:25:43.670Z,296.00
2019-06-10T03:26:43.757Z,228.00
2019-06-10T03:27:43.722Z,296.00
2019-06-10T03:28:43.749Z,304.00
2019-06-10T03:29:43.778Z,316.00
2019-06-10T03:30:53.319Z,320.00
2019-06-10T03:31:48.286Z,324.00
2019-06-10T03:32:46.821Z,328.00
2019-06-10T03:33:47.642Z,336.00
2019-06-10T03:34:47.362Z,360.00
2019-06-10T03:35:43.977Z,368.00
2019-06-10T03:36:43.969Z,372.00
2019-06-10T03:37:43.997Z,380.00
2019-06-10T03:38:44.026Z,388.00
2019-06-10T03:39:44.052Z,408.00
2019-06-10T03:40:44.080Z,408.00
2019-06-10T03:41:44.174Z,436.00
2019-06-10T03:42:44.195Z,364.00
2019-06-10T03:43:44.230Z,148.00
2019-06-10T03:44:44.190Z,388.00
2019-06-10T03:45:44.217Z,516.00
2019-06-10T03:46:44.243Z,180.00
2019-06-10T03:47:44.321Z,556.00
2019-06-10T03:48:44.298Z,556.00
2019-06-10T03:49:52.320Z,564.00
2019-06-10T03:50:44.354Z,568.00
2019-06-10T03:51:44.421Z,184.00
2019-06-10T03:52:44.408Z,212.00
2019-06-10T03:53:44.479Z,212.00
2019-06-10T03:54:44.462Z,580.00
2019-06-10T03:55:44.489Z,160.00
2019-06-10T03:56:44.517Z,380.00
2019-06-10T03:57:44.544Z,84.00
2019-06-10T03:58:44.578Z,128.00
2019-06-10T03:59:44.635Z,116.00
2019-06-10T04:00:44.630Z,96.00
2019-06-10T04:01:44.656Z,84.00
2019-06-10T04:02:44.683Z,76.00
2019-06-10T04:03:44.709Z,60.00
2019-06-10T04:04:44.738Z,92.00
2019-06-10T04:05:44.764Z,112.00
2019-06-10T04:06:44.791Z,92.00
2019-06-10T04:07:44.820Z,72.00
2019-06-10T04:08:44.912Z,128.00
2019-06-10T04:09:44.874Z,120.00
2019-06-10T04:10:44.902Z,132.00
2019-06-10T04:11:44.931Z,132.00
2019-06-10T04:12:44.960Z,120.00
2019-06-10T04:13:44.985Z,136.00
2019-06-10T04:14:45.057Z,124.00
2019-06-10T04:15:45.038Z,116.00
2019-06-10T04:16:45.116Z,136.00
2019-06-10T04:17:45.146Z,100.00
2019-06-10T04:18:45.123Z,100.00
2019-06-10T04:19:45.147Z,92.00
2019-06-10T04:20:45.216Z,72.00
2019-06-10T04:21:45.204Z,92.00
2019-06-10T04:22:45.231Z,132.00
2019-06-10T04:23:45.256Z,96.00
2019-06-10T04:24:45.342Z,88.00
2019-06-10T04:25:45.314Z,84.00
2019-06-10T04:26:45.340Z,76.00
2019-06-10T04:27:45.370Z,60.00
2019-06-10T04:28:45.397Z,72.00
2019-06-10T04:29:45.423Z,72.00
2019-06-10T04:30:45.452Z,68.00
2019-06-10T04:31:45.478Z,92.00
2019-06-10T04:32:45.505Z,80.00
2019-06-10T04:33:45.532Z,88.00
2019-06-10T04:34:45.609Z,100.00
2019-06-10T04:35:45.640Z,80.00
2019-06-10T04:36:45.615Z,88.00
2019-06-10T04:37:45.697Z,88.00
2019-06-10T04:38:45.669Z,96.00
2019-06-10T04:39:45.698Z,116.00
2019-06-10T04:40:45.726Z,248.00
2019-06-10T04:41:45.752Z,128.00
2019-06-10T04:42:45.779Z,140.00
2019-06-10T04:43:45.805Z,148.00
2019-06-10T04:44:45.835Z,712.00
2019-06-10T04:45:45.865Z,312.00
2019-06-10T04:46:45.941Z,1048.00
2019-06-10T04:47:45.955Z,284.00
2019-06-10T04:48:45.944Z,1216.00
2019-06-10T04:49:45.971Z,1520.00
2019-06-10T04:50:46.566Z,260.00
2019-06-10T04:51:46.027Z,1464.00
2019-06-10T04:52:46.054Z,1440.00
2019-06-10T04:53:46.083Z,580.00
2019-06-10T04:54:46.109Z,176.00
2019-06-10T04:55:46.136Z,220.00
2019-06-10T04:56:46.164Z,1464.00
2019-06-10T04:57:46.190Z,176.00
2019-06-10T04:58:46.218Z,144.00
2019-06-10T04:59:46.246Z,160.00
2019-06-10T05:00:46.272Z,172.00
2019-06-10T05:01:46.302Z,1480.00
2019-06-10T05:02:46.329Z,848.00
2019-06-10T05:03:46.357Z,332.00
2019-06-10T05:04:46.382Z,276.00
2019-06-10T05:05:46.410Z,216.00
2019-06-10T05:06:46.438Z,264.00
2019-06-10T05:07:46.466Z,168.00
2019-06-10T05:08:46.492Z,156.00
2019-06-10T05:09:46.521Z,136.00
2019-06-10T05:10:46.550Z,124.00
2019-06-10T05:11:46.578Z,152.00
2019-06-10T05:12:46.602Z,92.00
2019-06-10T05:13:46.696Z,112.00
2019-06-10T05:14:46.660Z,112.00
2019-06-10T05:15:46.685Z,84.00
2019-06-10T05:16:46.712Z,104.00
2019-06-10T05:17:46.755Z,148.00
2019-06-10T05:18:46.790Z,176.00
2019-06-10T05:19:46.798Z,184.00
2019-06-10T05:20:57.703Z,688.00
2019-06-10T05:21:46.851Z,168.00
2019-06-10T05:22:46.878Z,1076.00
2019-06-10T05:23:46.904Z,284.00
2019-06-10T05:24:46.932Z,188.00
2019-06-10T05:25:46.964Z,208.00
2019-06-10T05:26:46.988Z,216.00
2019-06-10T05:27:47.015Z,1012.00
2019-06-10T05:28:47.042Z,1380.00
2019-06-10T05:29:47.075Z,208.00
2019-06-10T05:30:47.098Z,220.00
2019-06-10T05:31:47.151Z,1188.00
2019-06-10T05:32:47.154Z,176.00
2019-06-10T05:33:47.179Z,124.00
2019-06-10T05:34:47.208Z,152.00
2019-06-10T05:35:47.294Z,148.00
2019-06-10T05:36:47.263Z,168.00
2019-06-10T05:37:47.290Z,780.00
2019-06-10T05:38:47.317Z,144.00
2019-06-10T05:39:47.349Z,132.00
2019-06-10T05:40:47.374Z,100.00
2019-06-10T05:41:50.134Z,112.00
2019-06-10T05:42:47.478Z,192.00
2019-06-10T05:43:47.458Z,124.00
2019-06-10T05:44:47.489Z,116.00
2019-06-10T05:45:47.511Z,120.00
2019-06-10T05:46:47.538Z,156.00
2019-06-10T05:47:47.565Z,156.00
2019-06-10T05:48:47.592Z,224.00
2019-06-10T05:49:47.623Z,248.00
2019-06-10T05:51:00.154Z,324.00
2019-06-10T05:51:47.676Z,332.00
2019-06-10T05:52:47.705Z,356.00
2019-06-10T05:53:47.732Z,1212.00
2019-06-10T05:54:47.759Z,788.00
2019-06-10T05:55:47.788Z,1160.00
2019-06-10T05:56:47.814Z,364.00
2019-06-10T05:57:47.897Z,1168.00
2019-06-10T05:58:47.869Z,228.00
2019-06-10T05:59:47.896Z,248.00
2019-06-10T06:00:47.986Z,428.00
2019-06-10T06:01:47.998Z,608.00
2019-06-10T06:02:47.980Z,276.00
2019-06-10T06:03:48.006Z,1112.00
2019-06-10T06:04:48.035Z,924.00
2019-06-10T06:05:48.060Z,828.00
2019-06-10T06:06:48.090Z,740.00
2019-06-10T06:08:01.415Z,1180.00
2019-06-10T06:08:48.143Z,1176.00
2019-06-10T06:09:48.171Z,1140.00
2019-06-10T06:10:48.201Z,1148.00
2019-06-10T06:11:48.262Z,424.00
2019-06-10T06:12:48.278Z,1140.00
2019-06-10T06:13:48.318Z,1116.00
2019-06-10T06:14:48.309Z,1096.00
2019-06-10T06:15:48.336Z,216.00
2019-06-10T06:16:48.366Z,1020.00
2019-06-10T06:18:03.261Z,1044.00
2019-06-10T06:18:48.426Z,1064.00
2019-06-10T06:19:48.448Z,940.00
2019-06-10T06:20:48.480Z,980.00
2019-06-10T06:21:48.536Z,260.00
2019-06-10T06:22:48.532Z,332.00
2019-06-10T06:23:48.566Z,964.00
2019-06-10T06:24:48.586Z,300.00
2019-06-10T06:25:48.614Z,308.00
2019-06-10T06:26:48.643Z,276.00
2019-06-10T06:27:48.666Z,352.00
2019-06-10T06:28:48.708Z,284.00
2019-06-10T06:29:48.764Z,320.00
2019-06-10T06:30:48.750Z,296.00
2019-06-10T06:31:48.779Z,272.00
2019-06-10T06:32:48.807Z,940.00
2019-06-10T06:33:48.834Z,1012.00
2019-06-10T06:34:48.862Z,228.00
2019-06-10T06:35:48.889Z,208.00
2019-06-10T06:36:48.916Z,572.00
2019-06-10T06:37:48.946Z,208.00
2019-06-10T06:38:48.972Z,224.00
2019-06-10T06:39:49.054Z,200.00
2019-06-10T06:40:49.026Z,224.00
2019-06-10T06:41:49.054Z,200.00
2019-06-10T06:42:49.083Z,188.00
2019-06-10T06:43:49.108Z,164.00
2019-06-10T06:44:49.139Z,156.00
2019-06-10T06:45:49.164Z,144.00
2019-06-10T06:46:49.192Z,152.00
2019-06-10T06:47:49.275Z,188.00
2019-06-10T06:48:49.306Z,192.00
2019-06-10T06:49:49.274Z,288.00
2019-06-10T06:51:01.922Z,276.00
2019-06-10T06:51:55.319Z,236.00
2019-06-10T06:53:18.946Z,212.00
2019-06-10T06:53:52.946Z,212.00
2019-06-10T06:54:49.413Z,224.00
2019-06-10T06:55:52.811Z,232.00
2019-06-10T06:56:49.520Z,216.00
2019-06-10T06:57:49.496Z,272.00
2019-06-10T06:58:52.220Z,276.00
2019-06-10T06:59:49.552Z,264.00
2019-06-10T07:01:01.397Z,772.00
2019-06-10T07:01:52.334Z,332.00
2019-06-10T07:02:49.635Z,776.00
2019-06-10T07:03:49.661Z,636.00
2019-06-10T07:04:49.693Z,264.00
2019-06-10T07:05:49.717Z,232.00
2019-06-10T07:06:53.358Z,340.00
2019-06-10T07:07:49.771Z,572.00
2019-06-10T07:09:01.519Z,216.00
2019-06-10T07:09:49.830Z,164.00
2019-06-10T07:10:52.106Z,144.00
2019-06-10T07:11:49.883Z,148.00
2019-06-10T07:12:52.221Z,148.00
2019-06-10T07:13:49.936Z,148.00
2019-06-10T07:14:52.457Z,148.00
2019-06-10T07:15:49.991Z,512.00
2019-06-10T07:16:50.019Z,540.00
2019-06-10T07:17:52.530Z,552.00
2019-06-10T07:18:50.587Z,176.00
2019-06-10T07:19:52.719Z,164.00
2019-06-10T07:20:50.132Z,148.00
2019-06-10T07:22:05.597Z,444.00
2019-06-10T07:22:50.186Z,152.00
2019-06-10T07:23:52.568Z,112.00
2019-06-10T07:24:52.659Z,92.00
2019-06-10T07:25:50.329Z,92.00
2019-06-10T07:26:54.614Z,92.00
2019-06-10T07:27:52.575Z,100.00
2019-06-10T07:28:50.352Z,104.00
2019-06-10T07:29:52.742Z,112.00
2019-06-10T07:30:52.774Z,148.00
2019-06-10T07:31:53.411Z,228.00
2019-06-10T07:32:52.690Z,224.00
2019-06-10T07:33:52.604Z,232.00
2019-06-10T07:34:52.475Z,216.00
2019-06-10T07:35:52.495Z,260.00
2019-06-10T07:36:52.150Z,208.00
2019-06-10T07:37:52.291Z,236.00
2019-06-10T07:38:53.848Z,208.00
2019-06-10T07:39:52.367Z,204.00
2019-06-10T07:40:52.863Z,216.00
2019-06-10T07:41:52.877Z,236.00
2019-06-10T07:42:52.918Z,244.00
2019-06-10T07:43:52.808Z,220.00
2019-06-10T07:44:52.974Z,188.00
2019-06-10T07:45:53.359Z,160.00
2019-06-10T07:46:52.949Z,132.00
2019-06-10T07:47:52.329Z,108.00
2019-06-10T07:48:55.649Z,100.00
2019-06-10T07:49:52.259Z,108.00
2019-06-10T07:50:53.088Z,144.00
2019-06-10T07:51:52.297Z,180.00
2019-06-10T07:52:52.896Z,192.00
2019-06-10T07:53:52.608Z,216.00
2019-06-10T07:54:52.962Z,272.00
2019-06-10T07:55:53.387Z,256.00
2019-06-10T07:56:53.748Z,260.00
2019-06-10T07:57:53.052Z,244.00
2019-06-10T07:58:52.784Z,236.00
2019-06-10T07:59:52.230Z,236.00
2019-06-10T08:00:53.415Z,240.00
2019-06-10T08:01:54.859Z,236.00
2019-06-10T08:02:52.984Z,256.00
2019-06-10T08:03:52.636Z,264.00
2019-06-10T08:04:54.186Z,276.00
2019-06-10T08:05:52.585Z,264.00
2019-06-10T08:06:52.940Z,272.00
2019-06-10T08:07:51.431Z,264.00
2019-06-10T08:08:53.136Z,248.00
2019-06-10T08:09:53.269Z,244.00
2019-06-10T08:10:52.946Z,228.00
2019-06-10T08:11:53.239Z,208.00
2019-06-10T08:12:52.474Z,208.00
2019-06-10T08:13:53.813Z,236.00
2019-06-10T08:14:53.322Z,256.00
2019-06-10T08:15:53.213Z,292.00
2019-06-10T08:16:53.153Z,268.00
2019-06-10T08:17:53.159Z,280.00
2019-06-10T08:19:20.962Z,296.00
2019-06-10T08:19:54.170Z,296.00
2019-06-10T08:20:52.838Z,348.00
2019-06-10T08:21:53.693Z,428.00
2019-06-10T08:22:57.464Z,316.00
2019-06-10T08:23:54.052Z,308.00
2019-06-10T08:24:52.432Z,292.00
2019-06-10T08:25:56.510Z,296.00
2019-06-10T08:26:53.091Z,348.00
2019-06-10T08:27:53.046Z,348.00
2019-06-10T08:28:53.091Z,320.00
2019-06-10T08:30:13.484Z,308.00
2019-06-10T08:30:53.178Z,216.00
2019-06-10T08:31:53.254Z,204.00
2019-06-10T08:32:54.068Z,296.00
2019-06-10T08:33:53.375Z,244.00
2019-06-10T08:34:53.038Z,224.00
2019-06-10T08:35:59.455Z,236.00
2019-06-10T08:36:54.481Z,232.00
2019-06-10T08:37:52.938Z,232.00
2019-06-10T08:38:52.855Z,236.00
2019-06-10T08:39:52.989Z,220.00
2019-06-10T08:40:52.558Z,224.00
2019-06-10T08:41:52.783Z,340.00
2019-06-10T08:42:53.758Z,356.00
2019-06-10T08:43:53.064Z,356.00
2019-06-10T08:44:53.364Z,376.00
2019-06-10T08:45:52.952Z,372.00
2019-06-10T08:46:52.609Z,308.00
2019-06-10T08:47:54.181Z,388.00
2019-06-10T08:48:52.810Z,400.00
2019-06-10T08:49:53.176Z,292.00
2019-06-10T08:50:53.273Z,292.00
2019-06-10T08:51:53.424Z,276.00
2019-06-10T08:53:09.184Z,256.00
2019-06-10T08:53:53.323Z,244.00
2019-06-10T08:54:54.527Z,216.00
2019-06-10T08:55:53.629Z,244.00
2019-06-10T08:56:54.104Z,256.00
2019-06-10T08:57:54.055Z,240.00
2019-06-10T08:58:54.146Z,236.00
2019-06-10T08:59:53.443Z,228.00
2019-06-10T09:00:53.825Z,232.00
2019-06-10T09:01:56.769Z,212.00
2019-06-10T09:02:53.957Z,200.00
2019-06-10T09:03:53.694Z,196.00
2019-06-10T09:04:53.731Z,208.00
2019-06-10T09:05:54.467Z,216.00
2019-06-10T09:06:53.723Z,216.00
2019-06-10T09:07:54.468Z,224.00
2019-06-10T09:08:54.698Z,220.00
2019-06-10T09:09:53.991Z,216.00
2019-06-10T09:10:55.013Z,216.00
2019-06-10T09:11:54.584Z,216.00
2019-06-10T09:12:54.605Z,216.00
2019-06-10T09:13:53.457Z,212.00
2019-06-10T09:14:53.392Z,188.00
2019-06-10T09:16:10.496Z,184.00
2019-06-10T09:16:54.403Z,192.00
2019-06-10T09:17:56.152Z,204.00
2019-06-10T09:18:55.288Z,180.00
2019-06-10T09:19:54.253Z,180.00
2019-06-10T09:20:56.025Z,172.00
2019-06-10T09:21:56.410Z,160.00
2019-06-10T09:23:13.878Z,156.00
2019-06-10T09:23:59.592Z,144.00
2019-06-10T09:24:56.368Z,128.00
2019-06-10T09:25:57.353Z,144.00
2019-06-10T09:26:55.016Z,140.00
2019-06-10T09:27:54.761Z,140.00
2019-06-10T09:28:56.438Z,152.00
2019-06-10T09:29:55.549Z,184.00
2019-06-10T09:30:58.920Z,200.00
2019-06-10T09:31:55.937Z,208.00
2019-06-10T09:32:56.837Z,232.00
2019-06-10T09:33:56.610Z,236.00
2019-06-10T09:34:57.381Z,244.00
2019-06-10T09:35:55.016Z,228.00
2019-06-10T09:36:56.666Z,232.00
2019-06-10T09:37:55.712Z,288.00
2019-06-10T09:38:55.707Z,288.00
2019-06-10T09:39:59.226Z,376.00
2019-06-10T09:41:01.243Z,256.00
2019-06-10T09:42:01.072Z,240.00
2019-06-10T09:42:55.167Z,216.00
2019-06-10T09:43:57.036Z,212.00
2019-06-10T09:44:55.570Z,220.00
2019-06-10T09:45:56.393Z,244.00
2019-06-10T09:46:56.439Z,244.00
2019-06-10T09:47:59.652Z,224.00
2019-06-10T09:48:55.964Z,244.00
2019-06-10T09:49:55.594Z,240.00
2019-06-10T09:50:58.519Z,228.00
2019-06-10T09:51:57.344Z,240.00
2019-06-10T09:52:57.038Z,260.00
2019-06-10T09:54:02.115Z,224.00
2019-06-10T09:54:56.684Z,200.00
2019-06-10T09:55:55.612Z,204.00
2019-06-10T09:56:54.748Z,200.00
2019-06-10T09:57:59.721Z,184.00
2019-06-10T09:58:55.353Z,172.00
2019-06-10T09:59:56.337Z,148.00
2019-06-10T10:00:57.728Z,132.00
2019-06-10T10:02:00.008Z,160.00
2019-06-10T10:02:56.164Z,180.00
2019-06-10T10:03:59.738Z,176.00
2019-06-10T10:04:58.395Z,248.00
2019-06-10T10:06:06.450Z,208.00
2019-06-10T10:06:57.101Z,260.00
2019-06-10T10:07:57.315Z,244.00
2019-06-10T10:08:58.136Z,260.00
2019-06-10T10:09:57.092Z,284.00
2019-06-10T10:10:58.661Z,296.00
2019-06-10T10:11:56.074Z,260.00
2019-06-10T10:12:55.764Z,292.00
2019-06-10T10:13:54.905Z,292.00
2019-06-10T10:14:56.356Z,320.00
2019-06-10T10:15:54.959Z,216.00
2019-06-10T10:17:00.333Z,196.00
2019-06-10T10:17:56.432Z,184.00
2019-06-10T10:19:00.374Z,220.00
2019-06-10T10:19:57.014Z,208.00
2019-06-10T10:20:59.071Z,228.00
2019-06-10T10:21:58.200Z,172.00
2019-06-10T10:22:55.566Z,164.00
2019-06-10T10:24:07.007Z,152.00
2019-06-10T10:24:56.898Z,164.00
2019-06-10T10:25:57.085Z,192.00
2019-06-10T10:26:57.557Z,200.00
2019-06-10T10:27:57.692Z,192.00
2019-06-10T10:28:57.030Z,176.00
2019-06-10T10:29:57.334Z,172.00
2019-06-10T10:30:57.899Z,156.00
2019-06-10T10:31:55.461Z,156.00
2019-06-10T10:32:55.426Z,180.00
2019-06-10T10:33:55.452Z,192.00
2019-06-10T10:34:56.439Z,192.00
2019-06-10T10:35:55.507Z,204.00
2019-06-10T10:36:57.375Z,200.00
2019-06-10T10:37:55.833Z,280.00
2019-06-10T10:38:55.592Z,208.00
2019-06-10T10:39:56.607Z,232.00
2019-06-10T10:40:58.868Z,256.00
2019-06-10T10:41:57.272Z,208.00
2019-06-10T10:43:10.180Z,196.00
2019-06-10T10:43:58.223Z,200.00
2019-06-10T10:44:58.843Z,200.00
2019-06-10T10:46:00.172Z,212.00
2019-06-10T10:46:55.961Z,292.00
2019-06-10T10:47:57.524Z,220.00
2019-06-10T10:48:56.556Z,224.00
2019-06-10T10:49:57.071Z,212.00
2019-06-10T10:50:56.206Z,212.00
2019-06-10T10:51:55.994Z,224.00
2019-06-10T10:52:55.977Z,224.00
2019-06-10T10:54:20.228Z,224.00
2019-06-10T10:54:56.032Z,220.00
2019-06-10T10:55:56.060Z,220.00
2019-06-10T10:56:59.039Z,196.00
2019-06-10T10:57:56.154Z,188.00
2019-06-10T10:58:58.415Z,188.00
2019-06-10T10:59:56.343Z,188.00
2019-06-10T11:00:57.862Z,192.00
2019-06-10T11:01:56.226Z,212.00
2019-06-10T11:02:56.253Z,220.00
2019-06-10T11:03:59.136Z,216.00
2019-06-10T11:04:57.095Z,200.00
2019-06-10T11:06:00.660Z,192.00
2019-06-10T11:06:57.950Z,192.00
2019-06-10T11:07:56.761Z,212.00
2019-06-10T11:08:57.819Z,224.00
2019-06-10T11:09:56.974Z,228.00
2019-06-10T11:11:00.829Z,252.00
2019-06-10T11:11:57.343Z,268.00
2019-06-10T11:12:57.285Z,292.00
2019-06-10T11:13:58.401Z,248.00
2019-06-10T11:15:01.432Z,244.00
2019-06-10T11:15:58.336Z,280.00
2019-06-10T11:16:57.447Z,244.00
2019-06-10T11:17:58.168Z,240.00
2019-06-10T11:18:58.007Z,232.00
2019-06-10T11:19:57.739Z,212.00
2019-06-10T11:21:00.378Z,204.00
2019-06-10T11:21:57.858Z,192.00
2019-06-10T11:22:57.980Z,192.00
2019-06-10T11:24:01.253Z,196.00
2019-06-10T11:24:57.753Z,188.00
2019-06-10T11:25:57.536Z,176.00
2019-06-10T11:26:58.304Z,168.00
2019-06-10T11:27:57.324Z,156.00
2019-06-10T11:28:57.983Z,180.00
2019-06-10T11:29:59.029Z,204.00
2019-06-10T11:30:58.601Z,224.00
2019-06-10T11:31:58.681Z,232.00
2019-06-10T11:32:58.364Z,220.00
2019-06-10T11:33:59.056Z,228.00
2019-06-10T11:34:58.565Z,228.00
2019-06-10T11:35:58.122Z,220.00
2019-06-10T11:36:58.300Z,220.00
2019-06-10T11:37:58.196Z,240.00
2019-06-10T11:38:59.073Z,228.00
2019-06-10T11:39:57.270Z,208.00
2019-06-10T11:40:59.920Z,200.00
2019-06-10T11:41:57.768Z,204.00
2019-06-10T11:42:59.675Z,232.00
2019-06-10T11:43:59.256Z,236.00
2019-06-10T11:44:59.540Z,236.00
2019-06-10T11:46:02.701Z,232.00
2019-06-10T11:46:59.546Z,256.00
2019-06-10T11:47:58.267Z,244.00
2019-06-10T11:48:59.049Z,324.00
2019-06-10T11:49:58.056Z,268.00
2019-06-10T11:51:00.225Z,260.00
2019-06-10T11:51:59.553Z,248.00
2019-06-10T11:53:00.730Z,232.00
2019-06-10T11:53:58.887Z,224.00
2019-06-10T11:55:09.123Z,208.00
2019-06-10T11:55:58.009Z,208.00
2019-06-10T11:56:58.586Z,196.00
2019-06-10T11:57:59.256Z,192.00
2019-06-10T11:58:59.218Z,204.00
2019-06-10T11:59:59.409Z,244.00
2019-06-10T12:01:00.209Z,252.00
2019-06-10T12:02:00.406Z,232.00
2019-06-10T12:02:59.006Z,236.00
2019-06-10T12:04:00.239Z,228.00
2019-06-10T12:05:00.570Z,224.00
2019-06-10T12:06:01.050Z,216.00
2019-06-10T12:06:59.044Z,208.00
2019-06-10T12:08:01.252Z,216.00
2019-06-10T12:09:02.445Z,212.00
2019-06-10T12:10:00.813Z,204.00
2019-06-10T12:11:01.827Z,208.00
2019-06-10T12:12:01.881Z,208.00
2019-06-10T12:13:00.570Z,212.00
2019-06-10T12:14:02.893Z,224.00
2019-06-10T12:15:01.056Z,240.00
2019-06-10T12:17:22.293Z,264.00
2019-06-10T12:18:05.027Z,264.00
2019-06-10T12:18:58.944Z,236.00
2019-06-10T12:20:02.517Z,212.00
2019-06-10T12:21:00.390Z,204.00
2019-06-10T12:22:02.426Z,212.00
2019-06-10T12:23:00.322Z,200.00
2019-06-10T12:24:02.250Z,176.00
2019-06-10T12:25:27.186Z,172.00
2019-06-10T12:25:59.725Z,184.00
2019-06-10T12:27:00.245Z,204.00
2019-06-10T12:28:01.648Z,200.00
2019-06-10T12:29:00.289Z,200.00
2019-06-10T12:29:59.988Z,200.00
2019-06-10T12:31:02.890Z,260.00
2019-06-10T12:32:03.719Z,212.00
2019-06-10T12:32:59.535Z,208.00
2019-06-10T12:34:00.124Z,220.00
2019-06-10T12:34:59.757Z,252.00
2019-06-10T12:36:01.547Z,208.00